Jamestown, NY

4:15 PM EDT on April 30, 2017 (GMT -0400)
Chautauqua County-Jamestown

Weather History for KJHW - November, 2010

Change the Weather History Date:

Thursday, November 25, 2010

  Actual Average Record
Temperature  
Mean Temperature 35 °F -  
Max Temperature 37 °F 40 °F 60 °F (2001)
Min Temperature 33 °F 24 °F 9 °F (1981)
Degree Days  
Heating Degree Days 30    
Moisture  
Dew Point 29 °F    
Average Humidity 78    
Maximum Humidity 93    
Minimum Humidity 48    
Precipitation  
Precipitation 0.03 in - - ()
Sea Level Pressure  
Sea Level Pressure 29.89 in    
Wind  
Wind Speed 11 mph (SSE)    
Max Wind Speed 23 mph    
Max Gust Speed 36 mph    
Visibility 10 miles    
Events      
Averages and records for this station are not official NWS values.
T = Trace of Precipitation, MM = Missing Value Source: NWS Daily Summary

Daily Weather History Graph

Daily Weather History Graph

Search for Another Location

Airport or City:

Trip Planner

Search our weather history database for the weather conditions in past years. The results will help you decide how hot, cold, wet, or windy it might be!

Date:

Astronomy

Nov. 25, 2010 Rise Set
Actual Time 7:19 AM EST 4:48 PM EST
Civil Twilight 6:48 AM EST 5:19 PM EST
Nautical Twilight 6:13 AM EST 5:53 PM EST
Astronomical Twilight 5:40 AM EST 6:27 PM EST
Moon 8:44 PM EST (11/25) 10:48 AM EST (11/25)
Length of Visible Light 10h 30m
Length of Day
9h 29m
Waning Gibbous, 83% of the Moon is Illuminated
Nov 25
Waning Gibbous
Nov 28
Last Quarter
Dec 5
New
Dec 13
First Quarter
Dec 21
Full

Hourly Weather History & Observations

Time (EST) Temp. Windchill Dew Point Humidity Pressure Visibility Wind Dir Wind Speed Gust Speed Precip Events Conditions
12:15 AM 33.8 °F 28.6 °F 17.6 °F 52% 30.11 in 10.0 mi ESE 5.8 mph - N/A   Overcast
12:35 AM 33.8 °F 26.4 °F 17.6 °F 52% 30.11 in 10.0 mi ESE 9.2 mph - N/A   Overcast
12:55 AM 33.8 °F 26.4 °F 17.6 °F 52% 30.09 in 10.0 mi ESE 9.2 mph - N/A   Overcast
1:15 AM 33.8 °F 26.4 °F 17.6 °F 52% 30.08 in 10.0 mi SE 9.2 mph - N/A   Overcast
1:35 AM 33.8 °F 26.4 °F 17.6 °F 52% 30.08 in 10.0 mi ESE 9.2 mph - N/A   Overcast
1:55 AM 33.8 °F 26.4 °F 17.6 °F 52% 30.07 in 10.0 mi SE 9.2 mph - N/A   Overcast
2:15 AM 35.6 °F 29.2 °F 17.6 °F 48% 30.06 in 10.0 mi SE 8.1 mph - N/A   Overcast
2:35 AM 35.6 °F 29.2 °F 17.6 °F 48% 30.06 in 10.0 mi SE 8.1 mph - N/A   Overcast
2:55 AM 35.6 °F 28.0 °F 17.6 °F 48% 30.04 in 10.0 mi SSE 10.4 mph 17.3 mph N/A   Overcast
3:15 AM 35.6 °F 27.5 °F 17.6 °F 48% 30.03 in 10.0 mi SSE 11.5 mph 19.6 mph N/A   Overcast
3:35 AM 35.6 °F 26.2 °F 17.6 °F 48% 30.02 in 10.0 mi SSE 15.0 mph 19.6 mph N/A   Overcast
3:55 AM 35.6 °F 26.2 °F 17.6 °F 48% 30.02 in 10.0 mi SSE 15.0 mph 19.6 mph N/A   Overcast
4:15 AM 35.6 °F 27.5 °F 17.6 °F 48% 30.00 in 10.0 mi SSE 11.5 mph - N/A   Overcast
4:35 AM 35.6 °F 27.1 °F 19.4 °F 52% 30.00 in 10.0 mi SSE 12.7 mph 20.7 mph N/A   Overcast
4:55 AM 37.4 °F 29.8 °F 19.4 °F 48% 30.00 in 10.0 mi SSE 11.5 mph 16.1 mph N/A   Overcast
5:15 AM 37.4 °F 29.3 °F 21.2 °F 52% 29.99 in 10.0 mi SSE 12.7 mph 19.6 mph N/A   Overcast
5:35 AM 37.4 °F 28.5 °F 23.0 °F 56% 29.98 in 10.0 mi SSE 15.0 mph 19.6 mph N/A   Overcast
5:55 AM 35.6 °F 26.2 °F 26.6 °F 70% 29.98 in 10.0 mi SSE 15.0 mph 20.7 mph N/A   Overcast
6:15 AM 35.6 °F 27.1 °F 28.4 °F 75% 29.97 in 10.0 mi SSE 12.7 mph 19.6 mph N/A   Overcast
6:35 AM 33.8 °F 24.3 °F 30.2 °F 87% 29.97 in 10.0 mi SSE 13.8 mph 21.9 mph N/A   Overcast
6:55 AM 33.8 °F 25.8 °F 30.2 °F 87% 29.97 in 10.0 mi SSE 10.4 mph 20.7 mph N/A   Overcast
7:15 AM 33.8 °F 24.3 °F 30.2 °F 87% 29.97 in 10.0 mi SSE 13.8 mph 19.6 mph N/A   Overcast
7:35 AM 33.8 °F 24.8 °F 30.2 °F 87% 29.96 in 10.0 mi SE 12.7 mph 18.4 mph N/A   Overcast
7:55 AM 33.8 °F 25.3 °F 30.2 °F 87% 29.96 in 10.0 mi SE 11.5 mph 18.4 mph 0.01 in   Overcast
8:15 AM 33.8 °F 24.8 °F 30.2 °F 87% 29.93 in 10.0 mi SE 12.7 mph - N/A   Overcast
8:35 AM 33.8 °F 26.4 °F 30.2 °F 87% 29.94 in 10.0 mi SSE 9.2 mph - N/A   Overcast
8:55 AM 33.8 °F 25.3 °F 30.2 °F 87% 29.93 in 10.0 mi SSE 11.5 mph - N/A   Overcast
9:15 AM 33.8 °F 25.3 °F 30.2 °F 87% 29.91 in 10.0 mi SE 11.5 mph 18.4 mph 0.01 in   Overcast
9:35 AM 33.8 °F 24.8 °F 30.2 °F 87% 29.92 in 10.0 mi SSE 12.7 mph 16.1 mph 0.01 in   Overcast
9:55 AM 33.8 °F 24.8 °F 32.0 °F 93% 29.91 in 10.0 mi SSE 12.7 mph 18.4 mph 0.01 in   Overcast
10:15 AM 33.8 °F 24.8 °F 32.0 °F 93% 29.91 in 10.0 mi SSE 12.7 mph 17.3 mph N/A   Overcast
10:35 AM 33.8 °F 25.3 °F 32.0 °F 93% 29.90 in 10.0 mi SSE 11.5 mph 17.3 mph 0.01 in   Overcast
11:15 AM 35.6 °F 26.6 °F 33.8 °F 93% 29.87 in 10.0 mi SSE 13.8 mph 19.6 mph N/A   Overcast
11:35 AM 35.6 °F 27.5 °F 33.8 °F 93% 29.86 in 10.0 mi SSE 11.5 mph - N/A   Overcast
11:55 AM 35.6 °F 27.1 °F 33.8 °F 93% 29.84 in 10.0 mi SSE 12.7 mph - N/A   Overcast
12:15 PM 35.6 °F 27.1 °F 33.8 °F 93% 29.84 in 10.0 mi SSE 12.7 mph 18.4 mph N/A   Overcast
12:35 PM 35.6 °F 28.0 °F 33.8 °F 93% 29.85 in 10.0 mi South 10.4 mph - N/A   Overcast
12:55 PM 35.6 °F 28.0 °F 33.8 °F 93% 29.85 in 10.0 mi South 10.4 mph 18.4 mph N/A   Overcast
1:15 PM 35.6 °F 27.1 °F 33.8 °F 93% 29.85 in 10.0 mi South 12.7 mph - N/A   Overcast
1:35 PM 35.6 °F 26.6 °F 33.8 °F 93% 29.84 in 10.0 mi South 13.8 mph 19.6 mph N/A   Overcast
1:55 PM 35.6 °F 24.0 °F 33.8 °F 93% 29.78 in 10.0 mi SSE 23.0 mph 27.6 mph N/A   Overcast
2:15 PM 35.6 °F 24.5 °F 33.8 °F 93% 29.73 in 10.0 mi SSE 20.7 mph 27.6 mph N/A   Overcast
2:35 PM 35.6 °F 26.6 °F 33.8 °F 93% 29.73 in 10.0 mi SSE 13.8 mph 35.7 mph N/A   Overcast
2:55 PM 35.6 °F 24.5 °F 33.8 °F 93% 29.70 in 10.0 mi South 20.7 mph 26.5 mph N/A   Overcast
3:15 PM 37.4 °F 27.8 °F 33.8 °F 87% 29.71 in 10.0 mi South 17.3 mph 27.6 mph N/A   Overcast
3:35 PM 37.4 °F 28.9 °F 35.6 °F 93% 29.72 in 10.0 mi South 13.8 mph 23.0 mph N/A   Overcast
3:55 PM 37.4 °F 27.8 °F 35.6 °F 93% 29.71 in 10.0 mi South 17.3 mph 23.0 mph N/A   Overcast
4:15 PM 37.4 °F 28.5 °F 35.6 °F 93% 29.72 in 10.0 mi South 15.0 mph - N/A   Overcast
4:35 PM 37.4 °F 28.9 °F 35.6 °F 93% 29.70 in 10.0 mi South 13.8 mph 23.0 mph N/A   Overcast
4:55 PM 37.4 °F 28.2 °F 35.6 °F 93% 29.72 in 10.0 mi South 16.1 mph 20.7 mph N/A   Overcast
5:15 PM 37.4 °F 28.5 °F 35.6 °F 93% 29.72 in 10.0 mi South 15.0 mph 21.9 mph N/A   Overcast
5:35 PM 37.4 °F 28.5 °F 35.6 °F 93% 29.73 in 10.0 mi South 15.0 mph 20.7 mph N/A   Overcast
5:55 PM 37.4 °F 30.8 °F 35.6 °F 93% 29.72 in 10.0 mi South 9.2 mph - N/A   Overcast
6:15 PM 37.4 °F 30.8 °F 35.6 °F 93% 29.72 in 10.0 mi SSE 9.2 mph 16.1 mph N/A   Overcast
6:35 PM 37.4 °F 32.1 °F 35.6 °F 93% 29.71 in 10.0 mi SSE 6.9 mph - N/A   Overcast
6:55 PM 37.4 °F 31.4 °F 35.6 °F 93% 29.70 in 5.0 mi South 8.1 mph - N/A   Overcast
7:15 PM 37.4 °F 30.3 °F 35.6 °F 93% 29.69 in 2.0 mi SSE 10.4 mph - N/A   Overcast
7:35 PM 37.4 °F 30.3 °F 37.4 °F 100% 29.68 in 0.5 mi South 10.4 mph - N/A   Overcast
7:55 PM 37.4 °F 30.8 °F 37.4 °F 100% 29.68 in 0.2 mi South 9.2 mph - N/A   Overcast
8:15 PM 39.2 °F 33.0 °F 37.4 °F 93% 29.66 in 0.5 mi South 9.2 mph - N/A   Overcast
8:35 PM 39.2 °F 34.2 °F 37.4 °F 93% 29.64 in 0.2 mi SSE 6.9 mph - N/A   Overcast
8:55 PM 39.2 °F 34.2 °F 37.4 °F 93% 29.62 in 0.2 mi SSE 6.9 mph - 0.01 in   Overcast
9:15 PM 39.2 °F 33.0 °F 37.4 °F 93% 29.62 in 0.2 mi SSE 9.2 mph - 0.01 in   Overcast
9:35 PM 39.2 °F 33.0 °F 37.4 °F 93% 29.60 in 0.8 mi SSE 9.2 mph - 0.04 in   Overcast
9:55 PM 39.2 °F 33.0 °F 39.2 °F 100% 29.60 in 1.5 mi South 9.2 mph - 0.07 in   Overcast
10:15 PM 39.2 °F 34.2 °F 39.2 °F 100% 29.60 in 2.5 mi South 6.9 mph - 0.09 in   Overcast
10:35 PM 39.2 °F 33.6 °F 39.2 °F 100% 29.59 in 2.5 mi South 8.1 mph - 0.14 in   Overcast
10:55 PM 39.2 °F 32.5 °F 39.2 °F 100% 29.56 in 2.0 mi South 10.4 mph - 0.17 in   Overcast
11:15 PM 39.2 °F 33.0 °F 39.2 °F 100% 29.54 in 2.0 mi South 9.2 mph - 0.02 in   Overcast
11:35 PM 39.2 °F 33.6 °F 39.2 °F 100% 29.54 in 1.5 mi South 8.1 mph - 0.05 in   Overcast
11:55 PM 41.0 °F 35.8 °F 39.2 °F 93% 29.52 in 3.0 mi South 8.1 mph - 0.12 in   Overcast